Time;durP1;ratioP1;P1;durP2;ratioP2;P2;SDS_P1;SDS_P2;PMS_P1;PMS_P2;Temp;Humidity;BMP_temperature;BMP_pressure;BME280_temperature;BME280_humidity;BME280_pressure;Samples;Min_cycle;Max_cycle;Signal;HPM_P1;HPM_P2
2022/07/02 00:01:53;;;;;;;4.22;3.15;;;13.40;99.90;;;;;;5096344;28;20227;-66
2022/07/02 00:04:21;;;;;;;4.63;3.08;;;13.30;99.90;;;;;;5096790;28;20173;-67
2022/07/02 00:06:49;;;;;;;3.17;2.83;;;13.20;99.90;;;;;;5096480;28;20225;-66
2022/07/02 00:09:15;;;;;;;3.70;2.90;;;13.20;99.90;;;;;;5095139;28;20225;-66
2022/07/02 00:11:41;;;;;;;3.40;3.10;;;13.20;99.90;;;;;;5094932;28;20264;-66
2022/07/02 00:14:08;;;;;;;3.53;2.80;;;13.10;99.90;;;;;;5095316;28;20656;-66
2022/07/02 00:16:38;;;;;;;3.05;2.75;;;13.10;99.90;;;;;;5096171;28;20224;-66
2022/07/02 00:19:05;;;;;;;3.83;2.72;;;13.10;99.90;;;;;;5097398;28;20197;-67
2022/07/02 00:21:30;;;;;;;3.20;2.90;;;13.10;99.90;;;;;;5097010;28;20180;-67
2022/07/02 00:23:56;;;;;;;5.28;3.03;;;13.20;99.90;;;;;;5095372;28;20173;-66
2022/07/02 00:26:33;;;;;;;3.17;2.90;;;13.20;99.90;;;;;;5095001;28;20260;-67
2022/07/02 00:29:40;;;;;;;3.78;3.13;;;13.10;99.90;;;;;;5096137;28;20200;-67
2022/07/02 00:32:06;;;;;;;5.72;3.00;;;13.20;99.90;;;;;;5036946;28;20178;-66
2022/07/02 00:34:35;;;;;;;4.17;3.77;;;13.10;99.90;;;;;;5053744;28;20611;-66
2022/07/02 00:37:02;;;;;;;4.43;3.10;;;13.10;99.90;;;;;;5076176;28;20737;-66
2022/07/02 00:39:28;;;;;;;4.20;3.25;;;13.00;99.90;;;;;;5094566;28;20327;-66
2022/07/02 00:41:54;;;;;;;4.22;3.65;;;12.90;99.90;;;;;;5096321;28;20181;-66
2022/07/02 00:44:22;;;;;;;3.80;3.40;;;12.90;99.90;;;;;;5094465;28;20188;-66
2022/07/02 00:46:49;;;;;;;4.25;3.22;;;12.80;99.90;;;;;;5094060;28;20684;-66
2022/07/02 00:49:16;;;;;;;3.65;3.35;;;12.80;99.90;;;;;;5096103;28;20181;-66
2022/07/02 00:51:42;;;;;;;4.63;3.63;;;12.90;99.90;;;;;;5094317;28;20682;-67
2022/07/02 00:54:08;;;;;;;3.80;3.25;;;12.80;99.90;;;;;;5095518;28;20252;-66
2022/07/02 00:56:33;;;;;;;5.43;3.40;;;12.80;99.90;;;;;;5095436;28;20258;-66
2022/07/02 00:59:02;;;;;;;5.78;3.35;;;12.60;99.90;;;;;;5095411;28;20564;-66
2022/07/02 01:01:28;;;;;;;8.07;3.80;;;12.60;99.90;;;;;;5095182;28;20256;-66
2022/07/02 01:03:56;;;;;;;4.13;3.73;;;12.60;99.90;;;;;;5095276;28;20201;-66
2022/07/02 01:06:23;;;;;;;4.15;3.30;;;12.60;99.90;;;;;;5093840;28;20626;-66
2022/07/02 01:11:36;;;;;;;4.33;3.33;;;12.50;99.90;;;;;;5095646;28;20176;-66
2022/07/02 01:14:04;;;;;;;8.27;3.93;;;12.50;99.90;;;;;;5095245;28;20181;-66
2022/07/02 01:16:30;;;;;;;6.15;4.20;;;12.50;99.90;;;;;;5095056;28;20196;-66
2022/07/02 01:18:55;;;;;;;4.23;3.43;;;12.50;99.90;;;;;;5095671;28;20197;-66
2022/07/02 01:21:21;;;;;;;7.23;3.43;;;12.40;99.90;;;;;;5093828;28;20646;-66
2022/07/02 01:23:47;;;;;;;3.90;3.60;;;12.40;99.90;;;;;;5095045;28;20184;-66
2022/07/02 01:26:12;;;;;;;6.13;3.30;;;12.30;99.90;;;;;;5094661;28;20173;-66
2022/07/02 01:28:38;;;;;;;4.47;3.80;;;12.30;99.90;;;;;;5095474;28;20183;-66
2022/07/02 01:31:04;;;;;;;4.07;3.63;;;12.30;99.90;;;;;;5094651;28;20177;-68
2022/07/02 01:33:31;;;;;;;5.23;3.80;;;12.30;99.90;;;;;;5095427;28;20634;-66
2022/07/02 01:35:58;;;;;;;6.45;3.45;;;12.30;99.90;;;;;;5093466;28;20264;-66
2022/07/02 01:38:24;;;;;;;4.37;3.67;;;12.30;99.90;;;;;;5093270;28;20207;-66
2022/07/02 01:40:49;;;;;;;8.13;3.83;;;12.30;99.90;;;;;;5094752;28;20169;-66
2022/07/02 01:43:15;;;;;;;4.33;3.70;;;12.30;99.90;;;;;;5093488;28;20169;-66
2022/07/02 01:45:41;;;;;;;4.43;3.70;;;12.20;99.90;;;;;;5094798;28;20656;-66
2022/07/02 01:48:07;;;;;;;7.73;3.97;;;12.20;99.90;;;;;;5094350;28;20201;-66
2022/07/02 01:50:36;;;;;;;5.38;3.78;;;12.20;99.90;;;;;;5094144;28;20188;-66
2022/07/02 01:53:02;;;;;;;5.63;4.00;;;12.20;99.90;;;;;;5095337;28;20172;-66
2022/07/02 01:55:28;;;;;;;7.80;3.87;;;12.30;99.90;;;;;;5093445;28;20177;-65
2022/07/02 01:57:54;;;;;;;4.93;4.17;;;12.10;99.90;;;;;;5094412;28;20204;-66
2022/07/02 02:00:19;;;;;;;6.37;4.10;;;12.00;99.90;;;;;;5094969;28;20178;-66
2022/07/02 02:02:46;;;;;;;5.90;4.07;;;11.90;99.90;;;;;;5094116;28;20176;-66
2022/07/02 02:05:12;;;;;;;5.23;4.00;;;11.90;99.90;;;;;;5092984;28;20173;-66
2022/07/02 02:07:37;;;;;;;4.82;4.18;;;11.80;99.90;;;;;;5094259;28;20283;-66
2022/07/02 02:10:04;;;;;;;4.50;3.77;;;11.90;99.90;;;;;;5094068;28;20169;-66
2022/07/02 02:12:30;;;;;;;11.03;4.17;;;11.90;99.90;;;;;;5093957;28;20168;-66
2022/07/02 02:14:56;;;;;;;6.80;3.97;;;11.80;99.90;;;;;;5092997;28;20263;-67
2022/07/02 02:17:21;;;;;;;5.23;4.03;;;11.80;99.90;;;;;;5093813;28;20212;-71
2022/07/02 02:19:47;;;;;;;4.83;3.90;;;11.70;99.90;;;;;;5093816;28;20258;-66
2022/07/02 02:22:13;;;;;;;4.50;3.73;;;11.70;99.90;;;;;;5094062;28;20173;-65
2022/07/02 02:24:38;;;;;;;5.53;4.50;;;11.70;99.90;;;;;;5093818;28;20173;-65
2022/07/02 02:27:04;;;;;;;7.90;4.33;;;11.70;99.90;;;;;;5094098;28;20221;-65
2022/07/02 02:29:30;;;;;;;5.00;4.40;;;11.70;99.90;;;;;;5093724;28;20214;-66
2022/07/02 02:31:56;;;;;;;5.13;4.10;;;11.60;99.90;;;;;;5094088;28;20179;-65
2022/07/02 02:34:23;;;;;;;8.53;4.37;;;11.60;99.90;;;;;;5093751;28;20592;-65
2022/07/02 02:36:49;;;;;;;4.40;3.40;;;11.60;99.90;;;;;;5091942;28;20568;-65
2022/07/02 02:39:14;;;;;;;3.73;3.40;;;11.60;99.90;;;;;;5092270;28;20197;-65
2022/07/02 02:41:40;;;;;;;3.77;3.40;;;11.40;99.90;;;;;;5093660;28;20182;-67
2022/07/02 02:44:06;;;;;;;5.10;3.57;;;11.40;99.90;;;;;;5093714;28;20258;-67
2022/07/02 02:46:32;;;;;;;4.43;4.00;;;11.30;99.90;;;;;;5093527;28;20185;-67
2022/07/02 02:48:57;;;;;;;4.37;3.70;;;11.40;99.90;;;;;;5093546;28;20216;-67
2022/07/02 02:51:23;;;;;;;4.80;3.80;;;11.30;99.90;;;;;;5092303;28;20226;-67
2022/07/02 02:53:49;;;;;;;4.07;3.67;;;11.40;99.90;;;;;;5093809;28;20172;-67
2022/07/02 02:56:15;;;;;;;4.77;3.80;;;11.40;99.90;;;;;;5093444;28;20195;-67
2022/07/02 02:58:41;;;;;;;4.10;3.70;;;11.20;99.90;;;;;;5092004;28;20204;-67
2022/07/02 03:01:07;;;;;;;3.97;3.63;;;11.20;99.90;;;;;;5093599;28;20169;-67
2022/07/02 03:03:32;;;;;;;5.20;4.03;;;11.20;99.90;;;;;;5093151;28;20654;-68
2022/07/02 03:05:59;;;;;;;7.83;4.60;;;11.20;99.90;;;;;;5093442;28;20166;-67
2022/07/02 03:08:24;;;;;;;5.93;4.30;;;11.20;99.90;;;;;;5093330;28;20200;-67
2022/07/02 03:10:50;;;;;;;6.57;4.73;;;11.20;99.90;;;;;;5093356;28;20180;-67
2022/07/02 03:13:16;;;;;;;7.07;5.00;;;11.20;99.90;;;;;;5093311;28;20165;-67
2022/07/02 03:15:42;;;;;;;8.47;5.13;;;11.20;99.90;;;;;;5093253;28;20233;-67
2022/07/02 03:18:08;;;;;;;8.97;4.83;;;11.20;99.90;;;;;;5092815;28;20576;-67
2022/07/02 03:20:34;;;;;;;6.80;4.83;;;11.30;99.90;;;;;;5093515;28;20182;-67
2022/07/02 03:23:00;;;;;;;8.43;4.60;;;11.30;99.90;;;;;;5093290;28;20628;-67
2022/07/02 03:25:27;;;;;;;5.77;4.33;;;11.20;99.90;;;;;;5092028;28;20169;-67
2022/07/02 03:27:52;;;;;;;5.87;4.33;;;11.20;99.90;;;;;;5094891;28;20334;-67
2022/07/02 03:30:18;;;;;;;4.63;4.00;;;11.20;99.90;;;;;;5093183;28;20650;-66
2022/07/02 03:32:44;;;;;;;7.10;4.13;;;11.10;99.90;;;;;;5093130;28;20169;-66
2022/07/02 03:35:10;;;;;;;5.53;4.30;;;11.00;99.90;;;;;;5093215;28;20169;-66
2022/07/02 03:37:36;;;;;;;4.90;3.80;;;11.00;99.90;;;;;;5093206;28;20228;-66
2022/07/02 03:40:01;;;;;;;5.07;3.80;;;11.00;99.90;;;;;;5093155;28;20181;-66
2022/07/02 03:42:27;;;;;;;4.97;4.10;;;11.00;99.90;;;;;;5091797;28;20707;-66
2022/07/02 03:44:53;;;;;;;5.33;3.97;;;11.00;99.90;;;;;;5091932;28;20205;-66
2022/07/02 03:47:19;;;;;;;5.97;4.43;;;11.00;99.90;;;;;;5092908;28;20196;-66
2022/07/02 03:49:44;;;;;;;6.80;4.30;;;11.00;99.90;;;;;;5096348;28;20181;-66
2022/07/02 03:52:10;;;;;;;6.00;3.90;;;11.00;99.90;;;;;;5095422;28;20654;-66
2022/07/02 03:54:36;;;;;;;5.00;4.13;;;11.10;99.90;;;;;;5095635;28;20225;-66
2022/07/02 03:57:03;;;;;;;6.10;4.30;;;11.10;99.90;;;;;;5096614;28;20185;-66
2022/07/02 03:59:28;;;;;;;4.53;4.00;;;11.00;99.90;;;;;;5096446;28;20193;-66
2022/07/02 04:01:54;;;;;;;5.07;4.17;;;11.00;99.90;;;;;;5096298;28;20519;-66
2022/07/02 04:04:20;;;;;;;5.53;4.40;;;11.10;99.90;;;;;;5095178;28;20180;-66
2022/07/02 04:06:46;;;;;;;6.30;4.73;;;11.20;99.90;;;;;;5096403;28;20189;-66
2022/07/02 04:09:12;;;;;;;7.10;4.10;;;11.20;99.90;;;;;;5096378;28;20176;-66
2022/07/02 04:11:38;;;;;;;4.60;4.10;;;11.20;99.90;;;;;;5095056;28;20272;-66
2022/07/02 04:14:04;;;;;;;5.27;4.43;;;11.30;99.90;;;;;;5096864;28;20295;-66
2022/07/02 04:16:30;;;;;;;5.70;4.47;;;11.30;99.90;;;;;;5094615;28;20250;-66
2022/07/02 04:18:56;;;;;;;8.10;4.73;;;11.30;99.90;;;;;;5094762;28;20213;-66
2022/07/02 04:21:21;;;;;;;5.90;4.53;;;11.20;99.90;;;;;;5096073;28;20582;-64
2022/07/02 04:23:47;;;;;;;6.90;4.77;;;11.20;99.90;;;;;;5096136;28;20534;-64
2022/07/02 04:26:13;;;;;;;5.50;5.00;;;11.10;99.90;;;;;;5095967;28;20533;-64
2022/07/02 04:28:39;;;;;;;5.17;4.50;;;11.10;99.90;;;;;;5096005;28;20173;-64
2022/07/02 04:31:04;;;;;;;8.50;5.33;;;11.20;99.90;;;;;;5096299;28;20207;-64
2022/07/02 04:33:30;;;;;;;7.47;5.20;;;11.30;99.90;;;;;;5095659;28;20248;-64
2022/07/02 04:35:56;;;;;;;7.40;5.30;;;11.30;99.90;;;;;;5096207;28;20168;-64
2022/07/02 04:38:22;;;;;;;6.50;5.00;;;11.40;99.90;;;;;;5095614;28;20196;-64
2022/07/02 04:40:48;;;;;;;8.37;4.93;;;11.50;99.90;;;;;;5095969;28;20174;-64
2022/07/02 04:43:14;;;;;;;5.80;5.13;;;11.50;99.90;;;;;;5095786;28;20195;-64
2022/07/02 04:45:40;;;;;;;7.07;5.40;;;11.60;99.90;;;;;;5095623;28;20176;-64
2022/07/02 04:48:07;;;;;;;8.73;5.37;;;11.70;99.90;;;;;;5094251;28;20196;-64
2022/07/02 04:50:33;;;;;;;7.40;5.93;;;11.70;99.90;;;;;;5094276;28;20189;-64
2022/07/02 04:52:59;;;;;;;7.73;5.03;;;11.70;99.90;;;;;;5095817;28;20177;-64
2022/07/02 04:55:24;;;;;;;8.03;5.70;;;11.80;99.90;;;;;;5096061;28;20238;-64
2022/07/02 04:57:51;;;;;;;6.90;5.47;;;11.80;99.90;;;;;;5095337;28;20197;-64
2022/07/02 05:00:17;;;;;;;7.00;5.80;;;11.90;99.90;;;;;;5094803;28;20222;-64
2022/07/02 05:02:42;;;;;;;9.97;6.10;;;11.90;99.90;;;;;;5095036;28;20168;-64
2022/07/02 05:05:08;;;;;;;11.20;6.37;;;12.00;99.90;;;;;;5095499;28;20256;-64
2022/07/02 05:07:34;;;;;;;9.67;5.63;;;12.10;99.90;;;;;;5094011;28;20193;-64
2022/07/02 05:10:01;;;;;;;8.93;5.57;;;12.20;99.90;;;;;;5095405;28;20520;-64
2022/07/02 05:12:26;;;;;;;8.60;5.57;;;12.20;99.90;;;;;;5095380;28;20185;-64
2022/07/02 05:14:52;;;;;;;8.17;5.73;;;12.30;99.90;;;;;;5095072;28;20537;-64
2022/07/02 05:17:18;;;;;;;9.20;6.93;;;12.40;99.90;;;;;;5094833;28;20296;-64
2022/07/02 05:19:44;;;;;;;9.48;7.03;;;12.50;99.90;;;;;;5094851;28;20204;-65
2022/07/02 05:22:10;;;;;;;9.57;6.43;;;12.60;99.90;;;;;;5093726;28;20177;-65
2022/07/02 05:24:36;;;;;;;10.33;6.60;;;12.70;99.90;;;;;;5095310;28;20177;-65
2022/07/02 05:27:02;;;;;;;9.10;6.85;;;12.80;99.90;;;;;;5094702;28;20197;-65
2022/07/02 05:29:28;;;;;;;10.65;7.05;;;12.90;99.90;;;;;;5095319;28;20310;-64
2022/07/02 05:31:54;;;;;;;7.63;5.70;;;12.90;99.90;;;;;;5094818;28;20654;-65
2022/07/02 05:34:19;;;;;;;7.63;5.72;;;13.00;99.90;;;;;;5094539;28;20181;-65
2022/07/02 05:36:47;;;;;;;5.88;5.22;;;13.10;99.90;;;;;;5094758;28;20246;-64
2022/07/02 05:39:13;;;;;;;7.20;5.10;;;13.20;99.90;;;;;;5094478;28;20700;-65
2022/07/02 05:41:39;;;;;;;7.93;4.78;;;13.30;99.90;;;;;;5093367;28;20204;-65
2022/07/02 05:44:05;;;;;;;5.45;4.50;;;13.40;99.90;;;;;;5094688;28;20165;-65
2022/07/02 05:46:30;;;;;;;5.20;4.60;;;13.50;99.90;;;;;;5094413;28;20191;-65
2022/07/02 05:48:56;;;;;;;6.07;4.53;;;13.50;99.90;;;;;;5094130;28;20189;-65
2022/07/02 05:51:22;;;;;;;7.20;4.53;;;13.60;99.90;;;;;;5094320;28;20220;-65
2022/07/02 05:53:48;;;;;;;5.47;4.10;;;13.70;99.90;;;;;;5094400;28;20207;-65
2022/07/02 05:56:14;;;;;;;4.32;3.90;;;13.80;99.90;;;;;;5094442;28;20165;-65
2022/07/02 05:58:42;;;;;;;6.40;4.00;;;13.90;99.90;;;;;;5094298;28;20205;-65
2022/07/02 06:01:10;;;;;;;5.80;4.50;;;13.90;99.90;;;;;;5094680;28;20180;-65
2022/07/02 06:03:40;;;;;;;5.78;4.32;;;13.90;99.90;;;;;;5092988;28;20178;-65
2022/07/02 06:08:54;;;;;;;4.50;4.10;;;14.10;99.90;;;;;;5094647;28;20187;-64
2022/07/02 06:11:23;;;;;;;5.65;3.60;;;14.20;99.90;;;;;;5092677;28;20300;-73
2022/07/02 06:14:01;;;;;;;7.10;4.00;;;14.30;99.90;;;;;;5092965;28;20215;-67
2022/07/02 06:16:29;;;;;;;5.90;3.80;;;14.40;99.90;;;;;;5092335;28;20640;-67
2022/07/02 06:18:55;;;;;;;6.97;4.40;;;14.60;99.90;;;;;;5093670;28;20213;-67
2022/07/02 06:21:21;;;;;;;4.05;3.35;;;14.70;99.90;;;;;;5093276;28;20173;-67
2022/07/02 06:23:47;;;;;;;3.85;3.22;;;14.70;99.90;;;;;;5092618;28;20540;-67
2022/07/02 06:26:13;;;;;;;5.07;3.80;;;14.80;99.90;;;;;;5092479;28;20669;-68
2022/07/02 06:28:38;;;;;;;4.57;3.45;;;14.90;99.90;;;;;;5093820;28;20173;-68
2022/07/02 06:31:04;;;;;;;4.55;3.53;;;15.00;99.90;;;;;;5094062;28;20179;-67
2022/07/02 06:33:30;;;;;;;4.10;3.38;;;15.10;99.90;;;;;;5092279;28;20236;-67
2022/07/02 06:35:55;;;;;;;5.18;3.50;;;15.20;99.90;;;;;;5092715;28;20204;-66
2022/07/02 06:38:21;;;;;;;5.25;3.00;;;15.30;99.90;;;;;;5092439;28;20211;-66
2022/07/02 06:40:47;;;;;;;4.07;3.40;;;15.40;99.90;;;;;;5094334;28;20606;-66
2022/07/02 06:43:13;;;;;;;5.28;3.60;;;15.50;99.90;;;;;;5094722;28;20208;-67
2022/07/02 06:45:38;;;;;;;6.93;3.95;;;15.60;99.90;;;;;;5095798;28;20184;-67
2022/07/02 06:48:04;;;;;;;3.97;3.55;;;15.70;99.90;;;;;;5093714;28;20242;-67
2022/07/02 06:50:30;;;;;;;4.93;3.45;;;15.70;99.90;;;;;;5093212;28;20568;-67
2022/07/02 06:52:56;;;;;;;3.40;3.10;;;15.80;99.90;;;;;;5095411;28;20158;-69
2022/07/02 06:55:22;;;;;;;3.85;3.42;;;15.90;99.90;;;;;;5094958;28;20170;-69
2022/07/02 06:57:50;;;;;;;4.22;3.33;;;16.00;99.90;;;;;;5094834;28;20202;-69
2022/07/02 07:00:17;;;;;;;5.03;3.17;;;16.20;99.90;;;;;;5094980;28;20503;-69
2022/07/02 07:02:45;;;;;;;4.28;3.10;;;16.30;99.90;;;;;;5094575;28;20287;-68
2022/07/02 07:05:10;;;;;;;4.45;3.10;;;16.40;99.90;;;;;;5094425;28;20172;-69
2022/07/02 07:07:36;;;;;;;4.20;3.00;;;16.50;99.90;;;;;;5094610;28;20189;-69
2022/07/02 07:10:03;;;;;;;4.10;2.97;;;16.60;99.90;;;;;;5094684;28;20181;-69
2022/07/02 07:12:29;;;;;;;2.70;2.45;;;16.80;99.90;;;;;;5095064;28;20162;-69
2022/07/02 07:14:59;;;;;;;2.78;2.50;;;16.90;99.90;;;;;;5094034;28;20181;-69
2022/07/02 07:17:24;;;;;;;7.22;3.05;;;17.00;99.90;;;;;;5093987;28;20282;-68
2022/07/02 07:19:50;;;;;;;3.08;2.80;;;17.10;99.90;;;;;;5092631;28;20672;-69
2022/07/02 07:22:16;;;;;;;4.18;2.88;;;17.20;99.90;;;;;;5093008;28;20222;-69
2022/07/02 07:24:42;;;;;;;2.72;2.53;;;17.30;99.90;;;;;;5097573;28;20542;-69
2022/07/02 07:27:08;;;;;;;2.75;2.53;;;17.40;99.90;;;;;;5096965;28;20193;-69
2022/07/02 07:29:35;;;;;;;2.92;2.33;;;17.50;99.90;;;;;;5097822;28;20180;-69
2022/07/02 07:32:01;;;;;;;2.40;2.20;;;17.60;99.90;;;;;;5098565;28;20173;-69
2022/07/02 07:34:27;;;;;;;2.60;1.92;;;17.80;99.90;;;;;;5096677;28;20203;-69
2022/07/02 07:36:55;;;;;;;5.50;2.25;;;17.90;99.90;;;;;;5097728;28;20669;-69
2022/07/02 07:39:21;;;;;;;2.30;2.10;;;18.10;99.90;;;;;;5096310;28;20258;-69
2022/07/02 07:41:47;;;;;;;3.83;2.15;;;18.30;99.90;;;;;;5096444;28;20170;-69
2022/07/02 07:44:12;;;;;;;3.05;2.00;;;18.40;99.90;;;;;;5098278;28;20252;-69
2022/07/02 07:46:38;;;;;;;3.05;2.20;;;18.60;99.90;;;;;;5096420;28;20715;-68
2022/07/02 07:49:04;;;;;;;5.18;2.10;;;18.80;99.90;;;;;;5096640;28;20185;-68
2022/07/02 07:51:30;;;;;;;2.45;1.60;;;18.90;99.90;;;;;;5097036;28;20269;-68
2022/07/02 07:53:55;;;;;;;1.70;1.60;;;19.10;99.90;;;;;;5096726;28;20204;-68
2022/07/02 07:56:21;;;;;;;1.75;1.65;;;19.20;99.90;;;;;;5096852;28;20208;-68
2022/07/02 07:58:47;;;;;;;1.50;1.40;;;19.30;99.90;;;;;;5095427;28;20584;-68
2022/07/02 08:01:13;;;;;;;4.10;1.73;;;19.30;99.90;;;;;;5095267;28;20200;-68
2022/07/02 08:03:39;;;;;;;3.85;1.95;;;19.30;99.90;;;;;;5095008;28;20224;-68
2022/07/02 08:06:05;;;;;;;3.78;1.75;;;19.30;99.90;;;;;;5096698;28;20257;-68
2022/07/02 08:08:31;;;;;;;1.50;1.40;;;19.20;99.90;;;;;;5098751;28;20287;-65
2022/07/02 08:10:57;;;;;;;2.10;1.48;;;19.20;99.90;;;;;;5096484;28;20166;-65
2022/07/02 08:13:23;;;;;;;2.42;1.50;;;19.30;99.90;;;;;;5098269;28;20180;-66
2022/07/02 08:15:57;;;;;;;2.30;1.67;;;19.40;99.90;;;;;;5097228;28;20169;-68
2022/07/02 08:18:24;;;;;;;1.85;1.40;;;19.60;99.90;;;;;;5081498;28;20232;-68
2022/07/02 08:20:50;;;;;;;3.10;1.45;;;19.80;99.90;;;;;;5097838;28;20162;-68
2022/07/02 08:23:15;;;;;;;4.22;1.35;;;20.00;99.90;;;;;;5097154;28;20208;-69
2022/07/02 08:25:41;;;;;;;3.30;1.38;;;20.10;99.90;;;;;;5096476;28;20169;-69
2022/07/02 08:28:07;;;;;;;2.13;1.40;;;20.20;99.90;;;;;;5096433;28;20200;-70
2022/07/02 08:30:33;;;;;;;4.00;1.52;;;20.40;99.90;;;;;;5096674;28;20218;-70
2022/07/02 08:32:58;;;;;;;2.45;1.50;;;20.50;99.90;;;;;;5094838;28;20181;-69
2022/07/02 08:35:24;;;;;;;1.83;1.33;;;20.60;99.90;;;;;;5093793;28;20185;-70
2022/07/02 08:37:52;;;;;;;2.13;1.38;;;20.70;99.90;;;;;;5096060;28;20193;-70
2022/07/02 08:40:22;;;;;;;1.48;1.38;;;20.90;99.90;;;;;;5096379;28;20170;-69
2022/07/02 08:42:50;;;;;;;2.65;1.60;;;21.10;99.90;;;;;;5095503;28;20173;-70
2022/07/02 08:45:18;;;;;;;1.40;1.30;;;21.30;99.90;;;;;;5096545;28;20208;-69
2022/07/02 08:47:45;;;;;;;2.65;1.33;;;21.50;99.90;;;;;;5095944;28;20218;-69
2022/07/02 08:50:12;;;;;;;1.73;1.20;;;21.60;99.90;;;;;;5095857;28;20184;-69
2022/07/02 08:52:40;;;;;;;2.22;1.40;;;21.50;99.90;;;;;;5095788;28;20222;-70
2022/07/02 08:55:06;;;;;;;1.50;1.30;;;21.30;99.90;;;;;;5095499;28;20169;-69
2022/07/02 08:57:33;;;;;;;4.03;1.27;;;21.30;99.90;;;;;;5094472;28;20208;-69
2022/07/02 08:59:59;;;;;;;2.53;1.30;;;21.40;99.90;;;;;;5094693;28;20700;-70
2022/07/02 09:02:27;;;;;;;2.67;1.30;;;21.50;99.90;;;;;;5094448;28;20193;-69
2022/07/02 09:04:56;;;;;;;1.83;1.33;;;21.60;99.90;;;;;;5095760;28;20169;-68
2022/07/02 09:07:22;;;;;;;3.50;1.13;;;21.60;99.90;;;;;;5095225;28;20196;-69
2022/07/02 09:09:49;;;;;;;1.80;1.33;;;21.50;99.90;;;;;;5095230;28;20188;-68
2022/07/02 09:12:15;;;;;;;3.90;1.30;;;21.40;99.90;;;;;;5095330;28;20180;-68
2022/07/02 09:14:43;;;;;;;1.30;1.20;;;21.40;99.90;;;;;;5093701;28;20645;-68
2022/07/02 09:17:10;;;;;;;1.17;1.17;;;21.50;99.90;;;;;;5094863;28;20219;-68
2022/07/02 09:19:37;;;;;;;3.33;1.30;;;21.50;99.90;;;;;;5094527;28;20204;-68
2022/07/02 09:22:04;;;;;;;2.67;1.40;;;21.60;99.90;;;;;;5093505;28;20166;-68
2022/07/02 09:24:31;;;;;;;1.92;1.20;;;21.90;99.90;;;;;;5094996;28;20181;-68
2022/07/02 09:27:08;;;;;;;2.83;1.20;;;22.30;99.90;;;;;;5094807;28;20192;-68
2022/07/02 09:29:45;;;;;;;2.85;1.23;;;22.50;99.90;;;;;;5095274;28;20164;-68
2022/07/02 09:32:12;;;;;;;2.10;1.13;;;22.80;99.90;;;;;;5095035;28;20161;-68
2022/07/02 09:34:47;;;;;;;2.60;1.10;;;22.90;99.90;;;;;;5093155;28;20173;-68
2022/07/02 09:37:20;;;;;;;1.52;1.00;;;22.80;99.90;;;;;;5094658;28;20196;-69
2022/07/02 09:39:47;;;;;;;1.35;1.10;;;22.90;99.90;;;;;;5094584;28;20268;-68
2022/07/02 09:42:26;;;;;;;1.92;1.30;;;22.90;99.90;;;;;;5094537;28;20173;-68
2022/07/02 09:44:52;;;;;;;3.45;1.20;;;22.90;99.90;;;;;;5093241;28;20665;-68
2022/07/02 09:47:36;;;;;;;1.08;1.00;;;23.10;99.90;;;;;;5094115;28;20275;-68
2022/07/02 09:50:07;;;;;;;1.30;1.08;;;23.20;99.90;;;;;;5093116;28;20246;-68
2022/07/02 09:52:33;;;;;;;1.20;1.10;;;23.40;99.90;;;;;;5094428;28;20153;-68
2022/07/02 09:55:00;;;;;;;3.38;1.25;;;23.40;99.90;;;;;;5094383;28;20248;-68
2022/07/02 09:57:26;;;;;;;2.30;1.10;;;23.30;99.90;;;;;;5094393;28;20193;-69
2022/07/02 09:59:53;;;;;;;2.22;1.25;;;23.40;99.90;;;;;;5092944;28;20201;-68
2022/07/02 10:02:23;;;;;;;1.60;1.10;;;23.20;99.90;;;;;;5094284;28;20513;-68
2022/07/02 10:04:53;;;;;;;1.30;1.05;;;23.40;99.90;;;;;;5093924;28;20638;-69
2022/07/02 10:07:21;;;;;;;1.60;1.15;;;23.60;99.90;;;;;;5094098;28;20581;-69
2022/07/02 10:09:48;;;;;;;2.75;1.02;;;23.70;99.90;;;;;;5092741;28;20181;-68
2022/07/02 10:12:15;;;;;;;1.23;1.13;;;23.80;99.90;;;;;;5094284;28;20260;-68
2022/07/02 10:14:44;;;;;;;2.92;1.10;;;24.00;99.90;;;;;;5094312;28;20252;-68
2022/07/02 10:17:10;;;;;;;2.13;1.00;;;23.80;99.90;;;;;;5093701;28;20619;-68
2022/07/02 10:19:38;;;;;;;1.52;1.00;;;23.70;99.90;;;;;;5092329;28;20208;-68
2022/07/02 10:22:06;;;;;;;1.55;1.15;;;23.80;99.90;;;;;;5094151;28;20265;-68
2022/07/02 10:24:32;;;;;;;1.00;1.00;;;23.70;99.90;;;;;;5092598;28;20181;-68
2022/07/02 10:27:00;;;;;;;2.53;1.00;;;23.90;99.90;;;;;;5093882;28;20259;-68
2022/07/02 10:29:27;;;;;;;1.42;1.00;;;24.10;99.90;;;;;;5093776;28;20173;-68
2022/07/02 10:32:27;;;;;;;1.92;1.20;;;24.20;99.90;;;;;;5094270;28;20251;-68
2022/07/02 10:35:11;;;;;;;4.57;1.25;;;24.20;99.90;;;;;;5093100;28;20172;-68
2022/07/02 10:37:43;;;;;;;2.20;1.00;;;24.40;99.90;;;;;;5099738;28;20197;-69
2022/07/02 10:40:10;;;;;;;3.03;1.35;;;24.60;99.90;;;;;;5093794;28;20200;-69
2022/07/02 10:42:41;;;;;;;2.10;1.30;;;24.60;99.90;;;;;;5093614;28;20543;-69
2022/07/02 10:45:16;;;;;;;2.65;1.10;;;24.80;99.90;;;;;;5093994;28;20170;-70
2022/07/02 10:48:00;;;;;;;3.15;1.20;;;24.70;99.90;;;;;;5094455;28;20188;-69
2022/07/02 10:50:46;;;;;;;1.58;1.10;;;24.80;99.90;;;;;;5094257;28;20185;-70
2022/07/02 10:53:22;;;;;;;2.10;1.65;;;24.90;99.90;;;;;;5094119;28;20178;-70
2022/07/02 10:55:50;;;;;;;2.35;1.00;;;25.10;99.90;;;;;;5094276;28;20156;-70
2022/07/02 10:58:21;;;;;;;4.05;1.70;;;25.40;99.90;;;;;;5094500;28;20236;-70
2022/07/02 11:00:47;;;;;;;2.78;1.30;;;25.40;99.90;;;;;;5098658;28;20169;-70
2022/07/02 11:03:14;;;;;;;1.10;1.00;;;25.10;99.90;;;;;;5096962;28;20177;-70
2022/07/02 11:06:01;;;;;;;2.45;1.25;;;24.90;99.90;;;;;;5098907;28;20165;-70
2022/07/02 11:08:45;;;;;;;1.00;0.90;;;24.90;99.90;;;;;;5098675;28;20217;-70
2022/07/02 11:11:17;;;;;;;1.10;1.00;;;25.00;99.90;;;;;;5098298;28;20160;-70
2022/07/02 11:13:55;;;;;;;0.90;0.90;;;25.20;99.90;;;;;;5098387;28;20252;-70
2022/07/02 11:16:26;;;;;;;4.55;1.30;;;25.20;99.90;;;;;;5096981;28;20169;-70
2022/07/02 11:18:54;;;;;;;2.35;1.40;;;25.20;99.90;;;;;;5096561;28;20265;-70
2022/07/02 11:21:23;;;;;;;4.25;2.20;;;25.20;99.90;;;;;;5098546;28;20170;-70
2022/07/02 11:23:50;;;;;;;1.50;1.02;;;25.30;99.90;;;;;;5098486;28;20282;-70
2022/07/02 11:26:18;;;;;;;1.85;1.00;;;25.50;99.90;;;;;;5098033;28;20208;-70
2022/07/02 11:28:44;;;;;;;1.15;1.00;;;25.70;99.90;;;;;;5097680;28;20223;-70
2022/07/02 11:31:10;;;;;;;4.22;1.67;;;25.70;99.90;;;;;;5097840;28;20173;-70
2022/07/02 11:33:40;;;;;;;2.58;1.38;;;25.70;99.90;;;;;;5097687;28;20211;-70
2022/07/02 11:36:06;;;;;;;1.00;0.90;;;25.90;99.90;;;;;;5097574;28;20169;-70
2022/07/02 11:38:40;;;;;;;1.98;1.27;;;26.30;99.90;;;;;;5097496;28;20208;-70
2022/07/02 11:41:16;;;;;;;1.70;1.10;;;26.40;99.90;;;;;;5096181;28;20218;-70
2022/07/02 11:43:44;;;;;;;1.10;1.05;;;26.50;99.90;;;;;;5096369;28;20656;-68
2022/07/02 11:46:12;;;;;;;2.15;1.00;;;26.70;99.90;;;;;;5096317;28;20173;-68
2022/07/02 11:48:38;;;;;;;1.67;1.00;;;26.80;99.90;;;;;;5095722;28;20177;-69
2022/07/02 11:51:04;;;;;;;1.35;0.95;;;26.80;99.90;;;;;;5097417;28;20181;-70
2022/07/02 11:53:30;;;;;;;1.00;0.90;;;26.80;99.90;;;;;;5097927;28;20179;-70
2022/07/02 11:56:08;;;;;;;2.88;0.93;;;27.10;99.90;;;;;;5096078;28;20178;-70
2022/07/02 11:58:46;;;;;;;1.10;1.00;;;27.00;99.90;;;;;;5095520;28;20208;-70
2022/07/02 12:01:28;;;;;;;0.73;0.73;;;27.00;99.90;;;;;;5095905;28;20181;-70
2022/07/02 12:04:02;;;;;;;1.70;1.08;;;27.00;99.90;;;;;;5095519;28;20697;-70
2022/07/02 12:06:30;;;;;;;3.65;1.17;;;27.20;99.90;;;;;;5096675;28;20154;-70
2022/07/02 12:08:58;;;;;;;1.00;0.90;;;27.30;99.90;;;;;;5096569;28;20717;-70
2022/07/02 12:11:24;;;;;;;7.40;5.28;;;27.30;99.90;;;;;;5096852;28;20212;-70
2022/07/02 12:13:52;;;;;;;1.67;1.23;;;27.50;99.90;;;;;;5095403;28;20177;-70
2022/07/02 12:16:24;;;;;;;13.30;9.20;;;27.40;99.90;;;;;;5096304;28;20200;-70
2022/07/02 12:19:06;;;;;;;3.53;2.42;;;27.30;99.90;;;;;;5094667;28;20303;-70
2022/07/02 12:21:36;;;;;;;1.33;1.00;;;27.60;99.90;;;;;;5096660;28;20682;-70
2022/07/02 12:24:18;;;;;;;3.72;1.02;;;28.00;99.90;;;;;;5095062;28;20173;-70
2022/07/02 12:26:45;;;;;;;1.98;0.90;;;28.40;99.90;;;;;;5096870;28;20664;-70
2022/07/02 12:32:08;;;;;;;1.42;1.33;;;28.60;99.90;;;;;;5096785;28;20164;-71
2022/07/02 12:34:40;;;;;;;3.03;1.23;;;28.20;99.90;;;;;;5095072;28;20253;-71
2022/07/02 12:37:07;;;;;;;1.50;1.08;;;28.00;99.90;;;;;;5096496;28;20234;-70
2022/07/02 12:39:41;;;;;;;2.30;0.80;;;28.10;99.90;;;;;;5095724;28;20223;-70
2022/07/02 12:42:15;;;;;;;1.95;1.05;;;28.40;99.90;;;;;;5095146;28;20173;-70
2022/07/02 12:45:00;;;;;;;2.13;1.00;;;28.50;99.90;;;;;;5096188;28;20153;-68
2022/07/02 12:47:37;;;;;;;1.17;1.05;;;28.40;99.90;;;;;;5094708;28;20189;-68
2022/07/02 12:50:14;;;;;;;1.85;1.10;;;28.40;99.90;;;;;;5094664;28;20560;-70
2022/07/02 12:52:54;;;;;;;2.08;1.55;;;27.80;99.90;;;;;;5096350;28;20161;-70
2022/07/02 12:55:31;;;;;;;1.38;1.23;;;27.70;99.90;;;;;;5095903;28;20165;-70
2022/07/02 12:58:02;;;;;;;0.98;0.90;;;28.20;99.90;;;;;;5095757;28;20665;-70